Time;durP1;ratioP1;P1;durP2;ratioP2;P2;SDS_P1;SDS_P2;PMS_P1;PMS_P2;Temp;Humidity;BMP_temperature;BMP_pressure;BME280_temperature;BME280_humidity;BME280_pressure;Samples;Min_cycle;Max_cycle;Signal;HPM_P1;HPM_P2
2022/04/14 00:00:34;;;;;;;9.20;7.05;;;;;;;8.87;nan;100995.56;4972586;28;20062;-79
2022/04/14 00:03:01;;;;;;;9.02;7.45;;;;;;;8.87;nan;100986.78;4978682;28;20036;-79
2022/04/14 00:05:29;;;;;;;7.80;7.00;;;;;;;8.89;nan;100987.66;4964619;28;20042;-80
2022/04/14 00:07:56;;;;;;;9.52;7.25;;;;;;;8.87;nan;100989.44;4965977;28;20113;-80
2022/04/14 00:10:23;;;;;;;8.90;7.63;;;;;;;8.72;nan;100986.00;4960472;28;20387;-79
2022/04/14 00:12:50;;;;;;;8.90;7.83;;;;;;;8.63;nan;100980.81;4979009;28;20030;-80
2022/04/14 00:15:21;;;;;;;8.80;7.63;;;;;;;8.56;nan;100980.88;4977570;28;20042;-80
2022/04/14 00:17:48;;;;;;;8.43;6.93;;;;;;;8.56;nan;100981.75;4975981;28;20051;-80
2022/04/14 00:20:14;;;;;;;9.18;7.43;;;;;;;8.53;nan;100978.28;4961804;28;20407;-81
2022/04/14 00:22:41;;;;;;;7.87;7.03;;;;;;;8.45;nan;100971.28;4976097;28;20035;-80
2022/04/14 00:25:10;;;;;;;8.47;7.47;;;;;;;8.42;nan;100971.31;4978045;28;20426;-80
2022/04/14 00:27:38;;;;;;;11.00;8.00;;;;;;;8.43;nan;100970.44;4977191;28;20053;-79
2022/04/14 00:30:06;;;;;;;10.90;7.57;;;;;;;8.42;nan;100973.97;4977715;28;20056;-80
2022/04/14 00:32:33;;;;;;;9.00;7.17;;;;;;;8.35;nan;100974.88;4946236;28;20035;-79
2022/04/14 00:35:00;;;;;;;10.75;8.23;;;;;;;8.32;nan;100976.59;4965985;28;20117;-80
2022/04/14 00:37:27;;;;;;;10.30;7.87;;;;;;;8.48;nan;100980.06;4984704;28;20117;-80
2022/04/14 00:39:54;;;;;;;9.60;7.67;;;;;;;8.41;nan;100980.13;4983441;28;20462;-81
2022/04/14 00:42:21;;;;;;;9.57;7.07;;;;;;;8.32;nan;100992.41;4965291;28;20090;-81
2022/04/14 00:44:48;;;;;;;11.87;8.77;;;;;;;8.24;nan;100986.31;4979810;28;20145;-82
2022/04/14 00:47:15;;;;;;;11.80;8.27;;;;;;;8.21;nan;100984.56;4980437;28;20113;-81
2022/04/14 00:49:42;;;;;;;10.40;8.30;;;;;;;8.24;nan;100992.47;4950932;28;20046;-80
2022/04/14 00:52:09;;;;;;;12.47;8.33;;;;;;;8.21;nan;100989.84;4975801;28;20546;-81
2022/04/14 00:54:36;;;;;;;9.80;7.87;;;;;;;8.14;nan;100989.00;4999788;28;20038;-80
2022/04/14 00:57:03;;;;;;;10.23;8.10;;;;;;;8.15;nan;100996.00;4975968;28;20038;-80
2022/04/14 00:59:31;;;;;;;10.93;8.00;;;;;;;8.09;nan;101003.06;4966143;28;20038;-80
2022/04/14 01:01:57;;;;;;;10.87;7.90;;;;;;;8.05;nan;100996.06;4978339;28;20042;-81
2022/04/14 01:04:25;;;;;;;13.63;9.90;;;;;;;8.04;nan;101002.22;4977824;28;20064;-80
2022/04/14 01:06:52;;;;;;;12.67;9.10;;;;;;;8.07;nan;101000.47;4959064;28;20038;-79
2022/04/14 01:09:19;;;;;;;13.23;9.10;;;;;;;8.06;nan;100997.81;4945994;28;20042;-80
2022/04/14 01:11:51;;;;;;;11.23;8.87;;;;;;;8.03;nan;101003.09;4944074;28;20051;-80
2022/04/14 01:14:25;;;;;;;12.37;8.70;;;;;;;8.01;nan;101002.22;4989043;28;20035;-80
2022/04/14 01:16:56;;;;;;;10.48;8.98;;;;;;;7.88;nan;101006.66;4961941;28;20101;-80
2022/04/14 01:19:23;;;;;;;10.83;9.17;;;;;;;7.77;nan;100996.19;4975020;28;20036;-80
2022/04/14 01:22:12;;;;;;;10.40;8.77;;;;;;;7.80;nan;101003.19;4980034;28;20026;-81
2022/04/14 01:24:39;;;;;;;13.43;8.97;;;;;;;7.80;nan;101006.69;4940396;28;20117;-80
2022/04/14 01:27:06;;;;;;;11.77;9.20;;;;;;;7.79;nan;101001.44;4963776;28;20038;-79
2022/04/14 01:29:33;;;;;;;12.43;8.47;;;;;;;7.63;nan;100997.97;4996077;28;20060;-80
2022/04/14 01:32:03;;;;;;;11.07;8.53;;;;;;;7.62;nan;101005.00;4976247;28;20041;-80
2022/04/14 01:34:30;;;;;;;10.03;8.53;;;;;;;7.68;nan;101001.47;4956582;28;20041;-81
2022/04/14 01:37:01;;;;;;;11.03;7.70;;;;;;;7.70;nan;101007.59;4944787;28;20074;-79
2022/04/14 01:39:30;;;;;;;9.83;8.50;;;;;;;7.71;nan;101011.97;4949346;28;20539;-79
2022/04/14 01:41:57;;;;;;;11.20;8.43;;;;;;;7.63;nan;101022.50;4943148;28;20042;-80
2022/04/14 01:44:24;;;;;;;10.70;8.20;;;;;;;7.43;nan;101015.56;4962241;28;20462;-80
2022/04/14 01:46:51;;;;;;;10.67;7.90;;;;;;;7.39;nan;101021.69;4975529;28;20043;-80
2022/04/14 01:49:18;;;;;;;14.77;10.13;;;;;;;7.40;nan;101019.09;4974189;28;20061;-79
2022/04/14 01:51:48;;;;;;;10.90;8.50;;;;;;;7.26;nan;101024.34;4994675;28;20042;-79
2022/04/14 01:54:19;;;;;;;13.15;9.25;;;;;;;7.33;nan;101027.84;4948619;28;20113;-79
2022/04/14 01:56:46;;;;;;;11.87;7.80;;;;;;;7.24;nan;101026.13;4964043;28;20635;-79
2022/04/14 01:59:14;;;;;;;10.07;7.70;;;;;;;7.21;nan;101028.72;4949608;28;20098;-80
2022/04/14 02:01:41;;;;;;;11.53;8.60;;;;;;;7.14;nan;101028.72;4949912;28;20125;-78
2022/04/14 02:04:09;;;;;;;14.93;10.07;;;;;;;7.40;nan;101068.13;4963405;28;20590;-80
2022/04/14 02:06:36;;;;;;;15.13;12.13;;;;;;;7.40;nan;101076.00;4960982;28;20046;-79
2022/04/14 02:09:03;;;;;;;20.90;14.77;;;;;;;7.33;nan;101078.66;4978649;28;20119;-78
2022/04/14 02:11:30;;;;;;;13.77;10.17;;;;;;;7.17;nan;101066.41;4974569;28;20052;-79
2022/04/14 02:13:57;;;;;;;13.00;8.50;;;;;;;7.17;nan;101066.41;4994047;28;20042;-79
2022/04/14 02:16:24;;;;;;;11.20;8.60;;;;;;;7.31;nan;101069.00;4956875;28;20052;-78
2022/04/14 02:18:51;;;;;;;13.10;9.83;;;;;;;7.17;nan;101073.41;4970911;28;20038;-78
2022/04/14 02:21:18;;;;;;;12.40;9.63;;;;;;;7.14;nan;101065.50;4960323;28;20098;-78
2022/04/14 02:23:45;;;;;;;14.33;9.67;;;;;;;7.12;nan;101062.88;4962110;28;20095;-78
2022/04/14 02:26:15;;;;;;;12.43;9.67;;;;;;;7.08;nan;101066.41;4962749;28;20101;-79
2022/04/14 02:28:43;;;;;;;15.40;10.20;;;;;;;7.03;nan;101073.41;4944156;28;20042;-78
2022/04/14 02:31:10;;;;;;;14.40;11.70;;;;;;;7.07;nan;101066.41;4978517;28;20026;-79
2022/04/14 02:33:37;;;;;;;16.97;11.37;;;;;;;7.11;nan;101076.03;4979372;28;20038;-79
2022/04/14 02:36:04;;;;;;;19.87;13.53;;;;;;;7.03;nan;101074.28;4979200;28;20121;-81
2022/04/14 02:38:31;;;;;;;18.10;13.00;;;;;;;7.05;nan;101077.78;4962517;28;20046;-80
2022/04/14 02:40:58;;;;;;;29.73;16.70;;;;;;;7.07;nan;101080.44;4961525;28;20118;-79
2022/04/14 02:43:25;;;;;;;13.83;10.00;;;;;;;7.00;nan;101078.66;4976457;28;20114;-79
2022/04/14 02:45:52;;;;;;;15.03;9.47;;;;;;;6.98;nan;101081.28;4965178;28;20121;-79
2022/04/14 02:48:20;;;;;;;14.40;9.43;;;;;;;7.01;nan;101083.91;4964321;28;20497;-78
2022/04/14 02:50:47;;;;;;;11.47;9.30;;;;;;;7.04;nan;101086.53;4958578;28;20137;-79
2022/04/14 02:53:14;;;;;;;12.27;9.17;;;;;;;7.02;nan;101082.16;4974050;28;20117;-79
2022/04/14 02:55:41;;;;;;;14.97;9.70;;;;;;;7.01;nan;101083.91;4980397;28;20098;-80
2022/04/14 02:58:08;;;;;;;13.13;8.63;;;;;;;7.06;nan;101083.91;4969767;28;20298;-79
2022/04/14 03:00:36;;;;;;;12.90;9.33;;;;;;;7.04;nan;101096.16;4978330;28;20117;-80
2022/04/14 03:03:04;;;;;;;13.13;8.90;;;;;;;7.07;nan;101088.31;4945226;28;20125;-79
2022/04/14 03:05:32;;;;;;;10.90;8.57;;;;;;;7.06;nan;101086.53;4979938;28;20121;-79
2022/04/14 03:07:59;;;;;;;12.43;9.53;;;;;;;7.08;nan;101097.94;4946825;28;20551;-79
2022/04/14 03:10:26;;;;;;;13.00;9.60;;;;;;;7.12;nan;101097.03;4943651;28;20549;-80
2022/04/14 03:12:54;;;;;;;43.50;20.37;;;;;;;7.15;nan;101101.44;4974899;28;20040;-80
2022/04/14 03:15:21;;;;;;;65.30;32.40;;;;;;;7.14;nan;101095.28;4959964;28;20045;-79
2022/04/14 03:17:50;;;;;;;76.43;34.87;;;;;;;7.07;nan;101082.19;4954359;28;20053;-80
2022/04/14 03:20:17;;;;;;;48.43;23.87;;;;;;;7.12;nan;101089.16;4961363;28;20065;-80
2022/04/14 03:22:46;;;;;;;30.50;17.53;;;;;;;7.12;nan;101085.66;4974651;28;20038;-81
2022/04/14 03:25:14;;;;;;;17.80;11.30;;;;;;;7.11;nan;101086.53;4978021;28;20133;-80
2022/04/14 03:27:41;;;;;;;14.00;10.00;;;;;;;7.21;nan;101088.28;4948952;28;20137;-79
2022/04/14 03:30:10;;;;;;;11.10;9.30;;;;;;;7.27;nan;101096.19;4973767;28;20114;-79
2022/04/14 03:32:44;;;;;;;13.53;9.13;;;;;;;7.29;nan;101090.03;4973253;28;20040;-80
2022/04/14 03:35:12;;;;;;;12.27;9.30;;;;;;;7.21;nan;101088.28;4990144;28;21877;-79
2022/04/14 03:37:39;;;;;;;11.23;8.43;;;;;;;7.23;nan;101090.06;4981843;28;20053;-80
2022/04/14 03:40:07;;;;;;;12.30;8.60;;;;;;;7.30;nan;101091.78;4981744;28;20046;-80
2022/04/14 03:42:35;;;;;;;10.90;8.70;;;;;;;7.25;nan;101090.06;4982478;28;20507;-80
2022/04/14 03:45:10;;;;;;;10.57;8.23;;;;;;;7.23;nan;101076.94;4961921;28;20039;-79
2022/04/14 03:47:37;;;;;;;9.13;8.13;;;;;;;7.25;nan;101074.28;4984900;28;20129;-79
2022/04/14 03:50:04;;;;;;;9.23;7.83;;;;;;;7.39;nan;101071.63;4970750;28;20129;-79
2022/04/14 03:52:31;;;;;;;10.60;8.00;;;;;;;7.39;nan;101074.25;4966564;28;20568;-80
2022/04/14 03:54:58;;;;;;;9.33;7.47;;;;;;;7.39;nan;101071.63;4967962;28;20093;-80
2022/04/14 03:57:25;;;;;;;10.93;8.40;;;;;;;7.41;nan;101075.16;4968262;28;20107;-81
2022/04/14 03:59:52;;;;;;;13.03;9.23;;;;;;;7.49;nan;101083.91;4970791;28;20114;-81
2022/04/14 04:02:19;;;;;;;8.97;7.87;;;;;;;7.45;nan;101088.28;4980465;28;20038;-81
2022/04/14 04:04:47;;;;;;;11.33;9.20;;;;;;;7.46;nan;101095.28;4962795;28;20050;-81
2022/04/14 04:07:14;;;;;;;11.27;8.57;;;;;;;7.41;nan;101089.19;4948978;28;20043;-80
2022/04/14 04:09:41;;;;;;;11.37;8.47;;;;;;;7.42;nan;101092.69;4982741;28;20039;-81
2022/04/14 04:12:08;;;;;;;10.90;8.50;;;;;;;7.49;nan;101090.06;4969000;28;20038;-79
2022/04/14 04:14:35;;;;;;;10.43;8.30;;;;;;;7.55;nan;101087.38;4947725;28;20064;-79
2022/04/14 04:17:04;;;;;;;10.83;7.70;;;;;;;7.58;nan;101082.16;4981984;28;20129;-80
2022/04/14 04:19:32;;;;;;;11.67;8.30;;;;;;;7.55;nan;101079.50;4982305;28;20122;-81
2022/04/14 04:21:59;;;;;;;10.03;7.73;;;;;;;7.59;nan;101091.78;4964937;28;20041;-80
2022/04/14 04:24:26;;;;;;;9.53;8.23;;;;;;;7.73;nan;101086.47;4954365;28;20041;-80
2022/04/14 04:26:53;;;;;;;9.87;7.70;;;;;;;7.73;nan;101082.97;4980784;28;20035;-79
2022/04/14 04:29:19;;;;;;;9.47;8.10;;;;;;;7.75;nan;101087.38;4962217;28;20411;-80
2022/04/14 04:31:46;;;;;;;11.27;8.03;;;;;;;7.64;nan;101081.25;4963911;28;20058;-80
2022/04/14 04:34:13;;;;;;;11.90;8.77;;;;;;;7.67;nan;101083.00;4961206;28;20069;-79
2022/04/14 04:36:40;;;;;;;12.73;8.60;;;;;;;7.77;nan;101090.00;4971212;28;20050;-81
2022/04/14 04:39:07;;;;;;;10.67;8.10;;;;;;;7.79;nan;101082.97;4974134;28;20042;-79
2022/04/14 04:41:34;;;;;;;11.17;8.47;;;;;;;7.74;nan;101076.88;4991746;28;20504;-80
2022/04/14 04:44:01;;;;;;;11.87;8.90;;;;;;;7.85;nan;101083.84;4974761;28;20122;-79
2022/04/14 04:46:28;;;;;;;12.00;8.27;;;;;;;7.95;nan;101091.69;4978224;28;20046;-81
2022/04/14 04:48:55;;;;;;;13.60;8.77;;;;;;;7.98;nan;101089.94;4956594;28;20030;-79
2022/04/14 04:51:22;;;;;;;14.23;9.37;;;;;;;8.00;nan;101079.41;4971896;28;20037;-80
2022/04/14 04:53:49;;;;;;;12.60;8.80;;;;;;;8.08;nan;101090.81;4970767;28;20031;-79
2022/04/14 04:56:18;;;;;;;12.07;9.10;;;;;;;8.15;nan;101087.22;4986560;28;20047;-80
2022/04/14 04:58:45;;;;;;;10.97;7.97;;;;;;;8.25;nan;101085.47;4970945;28;20081;-79
2022/04/14 05:01:12;;;;;;;10.20;7.97;;;;;;;8.34;nan;101075.78;4980013;28;20046;-80
2022/04/14 05:03:39;;;;;;;11.23;8.07;;;;;;;8.48;nan;101080.97;4970752;28;20399;-78
2022/04/14 05:06:06;;;;;;;11.43;8.27;;;;;;;8.60;nan;101080.06;4976445;28;20046;-80
2022/04/14 05:08:33;;;;;;;9.40;7.93;;;;;;;8.71;nan;101088.75;4973338;28;20054;-77
2022/04/14 05:11:06;;;;;;;10.47;8.37;;;;;;;8.76;nan;101086.13;4973156;28;20249;-80
2022/04/14 05:13:32;;;;;;;9.80;7.57;;;;;;;8.82;nan;101092.19;4986342;28;20034;-78
2022/04/14 05:16:02;;;;;;;9.77;7.70;;;;;;;8.89;nan;101091.28;4969616;28;20714;-79
2022/04/14 05:18:29;;;;;;;10.00;7.47;;;;;;;8.95;nan;101093.88;4972728;28;20049;-78
2022/04/14 05:20:56;;;;;;;9.43;6.80;;;;;;;9.01;nan;101098.25;4991506;28;20042;-80
2022/04/14 05:23:23;;;;;;;11.32;7.25;;;;;;;9.06;nan;101095.56;4990235;28;20043;-80
2022/04/14 05:25:50;;;;;;;9.45;7.05;;;;;;;9.12;nan;101099.03;4973757;28;20072;-80
2022/04/14 05:28:17;;;;;;;10.93;7.93;;;;;;;9.19;nan;101102.50;4968712;28;20044;-79
2022/04/14 05:30:44;;;;;;;8.60;7.18;;;;;;;9.24;nan;101100.69;4971519;28;20035;-80
2022/04/14 05:33:12;;;;;;;10.88;8.23;;;;;;;9.36;nan;101100.59;4975653;28;20042;-79
2022/04/14 05:35:39;;;;;;;12.55;8.65;;;;;;;9.47;nan;101106.66;4972017;28;20038;-80
2022/04/14 05:38:06;;;;;;;17.25;10.73;;;;;;;9.50;nan;101105.72;4991379;28;20044;-81
2022/04/14 05:40:35;;;;;;;11.60;8.55;;;;;;;9.54;nan;101110.09;4970412;28;20050;-80
2022/04/14 05:43:02;;;;;;;13.02;9.15;;;;;;;9.57;nan;101097.75;5053971;23;20037;-78
2022/04/14 05:45:30;;;;;;;14.27;9.65;;;;;;;9.64;nan;101097.72;5010086;28;20052;-79
2022/04/14 05:47:56;;;;;;;11.63;8.30;;;;;;;9.77;nan;101099.34;4995757;28;20037;-79
2022/04/14 05:50:23;;;;;;;14.02;9.10;;;;;;;9.84;nan;101101.91;5004489;28;20042;-76
2022/04/14 05:52:50;;;;;;;14.45;9.77;;;;;;;9.92;nan;101099.19;5008568;28;20146;-76
2022/04/14 05:55:17;;;;;;;11.95;8.02;;;;;;;9.94;nan;101091.25;4990360;28;20056;-78
2022/04/14 05:57:44;;;;;;;10.25;7.50;;;;;;;9.99;nan;101099.97;5008537;28;20064;-79
2022/04/14 06:00:13;;;;;;;11.48;8.20;;;;;;;10.05;nan;101107.84;4997963;28;20164;-79
2022/04/14 06:02:40;;;;;;;10.35;7.82;;;;;;;10.16;nan;101116.50;5004517;28;20421;-80
2022/04/14 06:05:08;;;;;;;10.10;7.63;;;;;;;10.23;nan;101120.84;4993736;28;20034;-78
2022/04/14 06:07:35;;;;;;;10.52;6.55;;;;;;;10.31;nan;101115.47;5013261;28;20037;-78
2022/04/14 06:10:02;;;;;;;11.48;8.05;;;;;;;10.40;nan;101123.28;5009291;28;20034;-78
2022/04/14 06:12:29;;;;;;;11.25;7.90;;;;;;;10.51;nan;101124.06;4991192;28;20783;-79
2022/04/14 06:14:56;;;;;;;7.90;6.57;;;;;;;10.62;nan;101122.13;4984775;28;20393;-78
2022/04/14 06:17:23;;;;;;;9.25;6.60;;;;;;;10.75;nan;101117.53;4994175;28;20044;-79
2022/04/14 06:19:50;;;;;;;8.32;6.10;;;;;;;10.90;nan;101112.03;4989398;28;20058;-79
2022/04/14 06:22:17;;;;;;;8.68;6.80;;;;;;;11.05;nan;101115.38;4993327;28;20030;-79
2022/04/14 06:24:44;;;;;;;10.00;7.88;;;;;;;11.26;nan;101122.94;5007134;28;20418;-79
2022/04/14 06:27:11;;;;;;;12.45;7.63;;;;;;;11.49;nan;101119.94;4980635;28;20048;-79
2022/04/14 06:29:38;;;;;;;9.23;7.15;;;;;;;11.91;nan;101125.41;4973094;28;20052;-79
2022/04/14 06:32:06;;;;;;;10.18;7.35;;;;;;;12.32;nan;101119.31;4992349;28;20060;-80
2022/04/14 06:34:33;;;;;;;14.77;7.53;;;;;;;12.65;nan;101120.38;4978112;28;20037;-80
2022/04/14 06:37:00;;;;;;;15.18;9.00;;;;;;;12.98;nan;101117.88;5007652;28;20037;-78
2022/04/14 06:39:27;;;;;;;12.27;8.05;;;;;;;13.29;nan;101121.59;5006956;28;20034;-80
2022/04/14 06:41:54;;;;;;;11.00;6.78;;;;;;;13.56;nan;101125.34;4990208;28;20429;-80
2022/04/14 06:44:21;;;;;;;10.88;7.50;;;;;;;13.67;nan;101127.72;4992967;28;20981;-78
2022/04/14 06:46:48;;;;;;;10.88;7.30;;;;;;;13.67;nan;101133.03;5006900;28;20081;-79
2022/04/14 06:49:16;;;;;;;11.13;7.03;;;;;;;13.58;nan;101134.13;5006489;28;20042;-77
2022/04/14 06:51:43;;;;;;;10.40;7.75;;;;;;;13.81;nan;101122.94;5005379;28;20030;-79
2022/04/14 06:54:10;;;;;;;11.05;7.88;;;;;;;14.07;nan;101123.09;5011348;28;20037;-79
2022/04/14 06:56:37;;;;;;;10.65;6.88;;;;;;;14.20;nan;101120.97;5005048;28;20045;-79
2022/04/14 06:59:04;;;;;;;11.63;7.38;;;;;;;14.47;nan;101130.00;4975091;28;20974;-79
2022/04/14 07:01:30;;;;;;;9.57;7.03;;;;;;;14.61;nan;101126.91;5007227;28;20038;-79
2022/04/14 07:03:58;;;;;;;12.48;7.70;;;;;;;14.67;nan;101132.03;4974827;28;20044;-78
2022/04/14 07:06:25;;;;;;;13.93;8.27;;;;;;;14.54;nan;101139.50;5007482;28;20439;-78
2022/04/14 07:08:52;;;;;;;12.60;7.30;;;;;;;14.62;nan;101140.16;4989654;28;20026;-78
2022/04/14 07:11:19;;;;;;;10.52;7.10;;;;;;;14.42;nan;101138.97;4997455;28;20045;-79
2022/04/14 07:13:46;;;;;;;9.32;6.55;;;;;;;14.18;nan;101133.41;5003772;28;20048;-78
2022/04/14 07:16:13;;;;;;;15.25;8.20;;;;;;;14.15;nan;101130.84;4990914;28;20434;-78
2022/04/14 07:18:40;;;;;;;11.27;7.80;;;;;;;13.93;nan;101133.22;4992397;28;20046;-78
2022/04/14 07:21:08;;;;;;;14.07;7.68;;;;;;;13.96;nan;101122.53;4975516;28;20044;-78
2022/04/14 07:23:35;;;;;;;11.18;7.45;;;;;;;14.09;nan;101129.22;4986770;28;20037;-78
2022/04/14 07:26:02;;;;;;;11.27;7.95;;;;;;;14.21;nan;101120.06;4985972;28;20037;-79
2022/04/14 07:28:29;;;;;;;14.30;7.63;;;;;;;14.36;nan;101126.72;4982993;28;20056;-81
2022/04/14 07:30:56;;;;;;;10.13;6.43;;;;;;;14.47;nan;101115.81;4993018;28;20046;-78
2022/04/14 07:33:23;;;;;;;9.05;6.05;;;;;;;14.65;nan;101125.91;4990529;28;20061;-77
2022/04/14 07:35:52;;;;;;;9.85;6.63;;;;;;;14.75;nan;101116.72;5011386;28;20045;-77
2022/04/14 07:38:19;;;;;;;11.30;6.28;;;;;;;14.78;nan;101126.41;5004698;28;20038;-77
2022/04/14 07:40:46;;;;;;;8.82;6.22;;;;;;;14.43;nan;101130.94;5018158;28;20041;-77
2022/04/14 07:43:13;;;;;;;9.32;6.30;;;;;;;14.37;nan;101129.31;4988223;28;20050;-80
2022/04/14 07:45:42;;;;;;;11.82;6.78;;;;;;;14.50;nan;101135.19;4995470;28;20554;-78
2022/04/14 07:48:09;;;;;;;12.68;7.30;;;;;;;14.48;nan;101136.19;4976854;28;20076;-78
2022/04/14 07:50:36;;;;;;;115.30;62.45;;;;;;;14.43;nan;101135.38;4988363;28;20044;-79
2022/04/14 07:53:04;;;;;;;13.95;8.60;;;;;;;14.45;nan;101133.56;4991033;28;20401;-79
2022/04/14 07:55:32;;;;;;;13.65;8.02;;;;;;;14.50;nan;101137.00;5007722;28;20046;-79
2022/04/14 07:58:07;;;;;;;12.27;7.55;;;;;;;14.41;nan;101135.44;4989430;28;20056;-80
2022/04/14 08:00:39;;;;;;;12.68;9.25;;;;;;;14.40;nan;101139.00;4990178;28;20030;-77
2022/04/14 08:03:07;;;;;;;13.38;7.65;;;;;;;14.39;nan;101136.41;4986821;28;20507;-77
2022/04/14 08:05:37;;;;;;;13.25;6.95;;;;;;;14.28;nan;101134.03;4988142;28;20038;-78
2022/04/14 08:08:05;;;;;;;23.67;13.27;;;;;;;14.36;nan;101156.81;4982261;28;20042;-79
2022/04/14 08:10:33;;;;;;;13.35;7.47;;;;;;;14.47;nan;101161.88;5006329;28;20495;-78
2022/04/14 08:13:00;;;;;;;16.17;8.20;;;;;;;14.34;nan;101157.78;4978267;28;20696;-79
2022/04/14 08:15:29;;;;;;;11.07;7.28;;;;;;;14.35;nan;101156.88;5019408;28;20434;-78
2022/04/14 08:17:57;;;;;;;12.10;7.38;;;;;;;14.34;nan;101155.13;4998082;28;20053;-79
2022/04/14 08:20:24;;;;;;;14.85;7.85;;;;;;;14.33;nan;101158.72;4989858;28;20048;-78
2022/04/14 08:22:56;;;;;;;12.05;6.70;;;;;;;14.27;nan;101158.88;5019335;28;20038;-78
2022/04/14 08:25:31;;;;;;;14.35;8.40;;;;;;;14.42;nan;101161.09;4992016;28;20467;-78
2022/04/14 08:27:59;;;;;;;8.55;5.78;;;;;;;14.46;nan;101162.81;4992884;28;20042;-78
2022/04/14 08:30:28;;;;;;;14.93;7.55;;;;;;;14.62;nan;101161.41;4960297;28;20045;-77
2022/04/14 08:32:58;;;;;;;14.60;8.02;;;;;;;14.66;nan;101169.31;4991474;28;20561;-78
2022/04/14 08:35:26;;;;;;;12.15;7.55;;;;;;;14.70;nan;101169.19;4991388;28;20701;-77
2022/04/14 08:37:54;;;;;;;20.55;11.88;;;;;;;14.70;nan;101170.97;4993406;28;20042;-78
2022/04/14 08:40:22;;;;;;;10.45;7.28;;;;;;;14.73;nan;101173.56;4991149;28;20394;-78
2022/04/14 08:43:03;;;;;;;10.02;6.68;;;;;;;14.49;nan;101169.81;4996971;28;20060;-77
2022/04/14 08:45:35;;;;;;;9.48;5.90;;;;;;;14.61;nan;101165.00;5004086;28;20040;-76
2022/04/14 08:48:04;;;;;;;19.23;9.90;;;;;;;14.53;nan;101160.81;5003001;28;20611;-79
2022/04/14 08:50:31;;;;;;;8.32;6.22;;;;;;;14.23;nan;101167.84;4981816;28;20042;-77
2022/04/14 08:53:00;;;;;;;13.25;6.32;;;;;;;14.42;nan;101174.41;5003387;28;20042;-77
2022/04/14 08:55:27;;;;;;;8.70;5.10;;;;;;;14.50;nan;101176.88;5002077;28;20408;-78
2022/04/14 08:57:55;;;;;;;10.25;6.78;;;;;;;14.57;nan;101176.66;5009966;28;20048;-78
2022/04/14 09:00:22;;;;;;;112.75;59.10;;;;;;;14.57;nan;101181.97;5011213;28;20491;-77
2022/04/14 09:02:51;;;;;;;33.72;15.45;;;;;;;14.53;nan;101179.44;5006360;28;20038;-77
2022/04/14 09:05:17;;;;;;;7.78;5.70;;;;;;;14.45;nan;101169.00;4998744;28;20038;-77
2022/04/14 09:07:49;;;;;;;9.05;5.10;;;;;;;14.39;nan;101178.94;5009989;28;20037;-79
2022/04/14 09:10:17;;;;;;;8.05;5.22;;;;;;;14.15;nan;101184.00;5011202;28;20037;-77
2022/04/14 09:12:46;;;;;;;10.80;5.78;;;;;;;14.12;nan;101176.09;4992405;28;20500;-77
2022/04/14 09:15:15;;;;;;;9.93;5.40;;;;;;;14.13;nan;101177.00;4993432;28;20034;-77
2022/04/14 09:17:42;;;;;;;7.80;5.05;;;;;;;14.11;nan;101178.81;5000543;28;20029;-78
2022/04/14 09:20:34;;;;;;;8.63;5.05;;;;;;;13.98;nan;101179.13;4989029;28;20033;-76
2022/04/14 09:23:25;;;;;;;9.63;6.10;;;;;;;14.05;nan;101175.41;4990408;28;20037;-76
2022/04/14 09:26:13;;;;;;;8.45;6.20;;;;;;;13.98;nan;101179.13;4977117;28;20080;-77
2022/04/14 09:28:42;;;;;;;14.90;10.63;;;;;;;14.05;nan;101186.03;5007790;28;20406;-77
2022/04/14 09:31:12;;;;;;;14.07;7.82;;;;;;;14.05;nan;101196.66;4988518;28;20044;-77
2022/04/14 09:33:48;;;;;;;8.30;5.78;;;;;;;13.97;nan;101206.63;5001463;28;20045;-78
2022/04/14 09:36:23;;;;;;;9.88;6.15;;;;;;;13.90;nan;101207.69;5003009;28;20515;-77
2022/04/14 09:39:02;;;;;;;8.00;5.07;;;;;;;13.92;nan;101195.22;4992046;28;20042;-77
2022/04/14 09:41:35;;;;;;;13.45;7.20;;;;;;;13.91;nan;101206.75;5017131;28;20038;-76
2022/04/14 09:44:13;;;;;;;7.22;5.07;;;;;;;13.83;nan;101218.50;5003420;28;20060;-77
2022/04/14 09:46:47;;;;;;;10.15;5.82;;;;;;;13.68;nan;101222.41;4992607;28;20053;-79
2022/04/14 09:49:16;;;;;;;8.73;6.18;;;;;;;13.55;nan;101223.63;4996594;28;20056;-79
2022/04/14 09:51:44;;;;;;;8.40;4.30;;;;;;;13.60;nan;101221.72;5007923;28;20044;-79
2022/04/14 09:54:19;;;;;;;10.77;7.15;;;;;;;13.50;nan;101213.97;5003770;28;20463;-77
2022/04/14 09:56:51;;;;;;;12.75;11.23;;;;;;;13.43;nan;101215.00;5001009;28;20043;-77
2022/04/14 09:59:21;;;;;;;4.65;3.20;;;;;;;13.35;nan;101213.44;5015859;28;20544;-78
2022/04/14 10:01:49;;;;;;;4.40;2.65;;;;;;;13.30;nan;101210.03;5012917;28;20048;-77
2022/04/14 10:04:36;;;;;;;5.15;3.20;;;;;;;13.18;nan;101206.72;4991496;28;20038;-77
2022/04/14 10:07:07;;;;;;;5.32;3.20;;;;;;;13.12;nan;101198.91;5009260;28;20041;-76
2022/04/14 10:09:39;;;;;;;5.78;3.85;;;;;;;12.98;nan;101187.72;5010243;28;20039;-78
2022/04/14 10:12:20;;;;;;;9.05;7.05;;;;;;;12.92;nan;101201.09;5001847;28;20056;-76
2022/04/14 10:14:55;;;;;;;5.13;3.90;;;;;;;12.87;nan;101187.97;4999187;28;20046;-76
2022/04/14 10:17:24;;;;;;;5.18;3.83;;;;;;;12.90;nan;101203.78;5002606;28;20044;-77
2022/04/14 10:19:52;;;;;;;4.47;4.03;;;;;;;12.97;nan;101196.59;5002425;28;20046;-77
2022/04/14 10:22:19;;;;;;;11.05;9.07;;;;;;;13.05;nan;101202.59;5006021;28;20045;-76
2022/04/14 10:24:47;;;;;;;27.15;24.35;;;;;;;13.05;nan;101207.03;4992186;28;20034;-77
2022/04/14 10:27:15;;;;;;;6.22;4.97;;;;;;;12.96;nan;101210.75;5003449;28;20045;-76
2022/04/14 10:29:43;;;;;;;4.97;3.90;;;;;;;13.02;nan;101221.22;4973806;28;20037;-77
2022/04/14 10:32:11;;;;;;;7.65;4.07;;;;;;;13.00;nan;101224.81;5004087;28;20057;-77
2022/04/14 10:34:38;;;;;;;7.18;5.28;;;;;;;12.72;nan;101232.47;5021259;28;20042;-77
2022/04/14 10:37:07;;;;;;;8.98;8.13;;;;;;;12.79;nan;101226.16;4990235;28;20036;-77
2022/04/14 10:39:39;;;;;;;8.65;5.22;;;;;;;12.73;nan;101213.88;4987793;28;20038;-76
2022/04/14 10:42:07;;;;;;;6.63;5.07;;;;;;;12.69;nan;101209.53;4992500;28;20072;-77
2022/04/14 10:44:46;;;;;;;14.05;11.77;;;;;;;12.77;nan;101219.97;4969034;28;20050;-77
2022/04/14 10:47:34;;;;;;;7.57;6.80;;;;;;;12.76;nan;101213.81;4986570;28;20033;-77
2022/04/14 10:50:03;;;;;;;8.70;6.55;;;;;;;12.76;nan;101216.47;5000569;28;20404;-78
2022/04/14 10:52:33;;;;;;;7.50;4.53;;;;;;;12.85;nan;101215.41;4989539;28;20046;-77
2022/04/14 10:55:01;;;;;;;5.90;4.00;;;;;;;12.90;nan;101221.47;4991863;28;20049;-77
2022/04/14 10:57:39;;;;;;;6.90;5.00;;;;;;;13.06;nan;101217.59;4976874;28;20057;-76
2022/04/14 11:00:21;;;;;;;7.35;4.28;;;;;;;13.06;nan;101211.44;4991646;28;20036;-77
2022/04/14 11:03:03;;;;;;;6.10;4.60;;;;;;;13.06;nan;101222.91;5007357;28;20112;-78
2022/04/14 11:05:41;;;;;;;6.78;4.88;;;;;;;13.03;nan;101227.38;4989001;28;20427;-79
2022/04/14 11:08:20;;;;;;;6.60;4.68;;;;;;;12.99;nan;101215.13;4977226;28;20076;-78
2022/04/14 11:11:11;;;;;;;7.70;5.25;;;;;;;12.98;nan;101208.94;5008036;28;20040;-80
2022/04/14 11:13:51;;;;;;;7.72;4.65;;;;;;;12.96;nan;101208.97;4978992;28;20067;-79
2022/04/14 11:16:39;;;;;;;9.45;4.75;;;;;;;12.91;nan;101217.94;4991234;28;20067;-77
2022/04/14 11:19:18;;;;;;;5.38;4.13;;;;;;;12.86;nan;101223.34;5005433;28;20045;-81
2022/04/14 11:22:05;;;;;;;4.38;3.10;;;;;;;12.84;nan;101217.19;4984513;28;20051;-80
2022/04/14 11:24:40;;;;;;;4.90;3.58;;;;;;;12.89;nan;101220.63;4998069;28;20030;-80
2022/04/14 11:27:28;;;;;;;6.07;3.45;;;;;;;12.79;nan;101213.75;4998548;28;20064;-79
2022/04/14 11:29:58;;;;;;;5.57;3.67;;;;;;;12.90;nan;101210.88;5006133;28;20048;-81
2022/04/14 11:32:39;;;;;;;5.32;3.13;;;;;;;12.80;nan;101215.50;4987944;28;20034;-78
2022/04/14 11:35:30;;;;;;;4.80;3.60;;;;;;;12.81;nan;101225.22;5002804;28;20030;-78
2022/04/14 11:37:57;;;;;;;5.67;3.97;;;;;;;12.82;nan;101219.00;5004052;28;20041;-79
2022/04/14 11:40:26;;;;;;;6.20;3.78;;;;;;;12.83;nan;101212.78;4984948;28;20041;-79
2022/04/14 11:42:54;;;;;;;5.70;3.80;;;;;;;12.86;nan;101209.19;5011133;28;20413;-78
2022/04/14 11:45:25;;;;;;;5.60;3.97;;;;;;;12.85;nan;101210.97;4989112;28;20045;-80
2022/04/14 11:47:59;;;;;;;8.30;3.88;;;;;;;12.93;nan;101216.97;5022428;28;20042;-78